Time;durP1;ratioP1;P1;durP2;ratioP2;P2;SDS_P1;SDS_P2;PMS_P1;PMS_P2;Temp;Humidity;BMP_temperature;BMP_pressure;BME280_temperature;BME280_humidity;BME280_pressure;Samples;Min_cycle;Max_cycle;Signal;HPM_P1;HPM_P2
2022/06/11 00:00:16;;;;;;;0.00;0.00;;;21.20;60.90;;;;;;5013716;28;20399;-71
2022/06/11 00:02:42;;;;;;;0.00;0.00;;;21.50;59.90;;;;;;5032981;28;20383;-72
2022/06/11 00:05:08;;;;;;;0.00;0.00;;;21.50;59.40;;;;;;5032580;28;20535;-72
2022/06/11 00:07:35;;;;;;;0.00;0.00;;;21.80;58.60;;;;;;5021004;28;20026;-72
2022/06/11 00:10:02;;;;;;;0.00;0.00;;;22.00;57.80;;;;;;5024578;28;20037;-72
2022/06/11 00:12:28;;;;;;;0.00;0.00;;;22.10;57.70;;;;;;5019135;28;20034;-72
2022/06/11 00:14:54;;;;;;;0.00;0.00;;;22.40;56.70;;;;;;5039613;28;20455;-72
2022/06/11 00:17:23;;;;;;;0.00;0.00;;;22.50;56.60;;;;;;5024965;28;20025;-72
2022/06/11 00:19:50;;;;;;;0.10;0.10;;;23.10;55.70;;;;;;5020290;28;20046;-72
2022/06/11 00:22:18;;;;;;;0.00;0.00;;;24.00;55.70;;;;;;5030791;28;20049;-73
2022/06/11 00:24:44;;;;;;;0.00;0.00;;;25.00;52.70;;;;;;5032105;28;20088;-72
2022/06/11 00:27:11;;;;;;;0.00;0.00;;;25.70;51.40;;;;;;5029164;28;20468;-72
2022/06/11 00:29:39;;;;;;;0.00;0.00;;;26.00;50.50;;;;;;5032168;28;20124;-72
2022/06/11 00:32:07;;;;;;;0.00;0.00;;;26.70;50.50;;;;;;5015717;28;20032;-72
2022/06/11 00:34:33;;;;;;;0.00;0.00;;;27.40;49.00;;;;;;5029762;28;20520;-72
2022/06/11 00:36:59;;;;;;;0.00;0.00;;;27.80;48.50;;;;;;5029587;28;20112;-72
2022/06/11 00:39:29;;;;;;;0.00;0.00;;;28.40;46.70;;;;;;5037870;28;20032;-72
2022/06/11 00:42:01;;;;;;;0.00;0.00;;;29.00;45.30;;;;;;5037839;28;20037;-72
2022/06/11 00:44:27;;;;;;;0.00;0.00;;;29.40;44.90;;;;;;5028464;28;20109;-73
2022/06/11 00:47:12;;;;;;;0.00;0.00;;;30.20;43.80;;;;;;5014763;28;20029;-72
2022/06/11 00:49:44;;;;;;;0.00;0.00;;;30.40;41.70;;;;;;5022279;28;20041;-72
2022/06/11 00:52:14;;;;;;;0.25;0.25;;;29.80;43.80;;;;;;5046236;28;20117;-72
2022/06/11 00:54:44;;;;;;;0.00;0.00;;;28.90;47.00;;;;;;5012924;28;20061;-72
2022/06/11 00:57:11;;;;;;;0.00;0.00;;;28.60;46.80;;;;;;5020207;28;20029;-72
2022/06/11 00:59:45;;;;;;;0.05;0.05;;;28.20;47.20;;;;;;5025984;28;20727;-72
2022/06/11 01:02:11;;;;;;;0.00;0.00;;;28.00;48.20;;;;;;5031124;28;20107;-72
2022/06/11 01:04:47;;;;;;;0.00;0.00;;;27.80;48.20;;;;;;5031487;28;20029;-72
2022/06/11 01:07:25;;;;;;;0.00;0.00;;;27.60;48.80;;;;;;5026866;28;20128;-72
2022/06/11 01:10:10;;;;;;;0.00;0.00;;;27.20;50.00;;;;;;5020386;28;20125;-72
2022/06/11 01:12:39;;;;;;;0.00;0.00;;;27.10;49.20;;;;;;5018104;28;20100;-72
2022/06/11 01:15:10;;;;;;;0.38;0.38;;;26.90;48.90;;;;;;5032261;28;20029;-72
2022/06/11 01:17:53;;;;;;;0.00;0.00;;;26.80;50.60;;;;;;5025865;28;20057;-72
2022/06/11 01:20:31;;;;;;;0.00;0.00;;;26.30;50.90;;;;;;5031455;28;20095;-72
2022/06/11 01:23:35;;;;;;;0.00;0.00;;;26.10;51.50;;;;;;5029513;28;20033;-72
2022/06/11 01:26:51;;;;;;;0.55;0.55;;;25.90;51.20;;;;;;5032571;28;20097;-72
2022/06/11 01:29:42;;;;;;;0.00;0.00;;;25.90;52.20;;;;;;5018860;28;20030;-72
2022/06/11 01:32:17;;;;;;;0.00;0.00;;;25.50;50.00;;;;;;5031612;28;20030;-72
2022/06/11 01:35:01;;;;;;;0.00;0.00;;;25.50;49.60;;;;;;5023775;28;20052;-72
2022/06/11 01:37:33;;;;;;;0.00;0.00;;;25.40;48.50;;;;;;5034492;28;20408;-72
2022/06/11 01:40:11;;;;;;;0.00;0.00;;;25.40;48.30;;;;;;5036943;28;20822;-72
2022/06/11 01:43:00;;;;;;;0.00;0.00;;;25.40;48.30;;;;;;5042823;28;20025;-72
2022/06/11 01:45:34;;;;;;;0.00;0.00;;;25.60;48.50;;;;;;5027531;28;20463;-72
2022/06/11 01:48:03;;;;;;;0.00;0.00;;;25.60;48.00;;;;;;5027196;28;20037;-72
2022/06/11 01:50:36;;;;;;;0.88;0.82;;;25.70;47.90;;;;;;5042031;28;20037;-72
2022/06/11 01:53:29;;;;;;;0.40;0.40;;;25.80;47.50;;;;;;5038195;28;20021;-72
2022/06/11 01:56:25;;;;;;;0.05;0.05;;;25.80;47.70;;;;;;5029001;28;20372;-72
2022/06/11 01:59:29;;;;;;;0.00;0.00;;;25.90;47.70;;;;;;5034646;28;20074;-72
2022/06/11 02:02:04;;;;;;;0.08;0.08;;;25.90;47.80;;;;;;5016250;28;20546;-72
2022/06/11 02:04:39;;;;;;;0.00;0.00;;;25.90;48.00;;;;;;5034403;28;20503;-72
2022/06/11 02:07:09;;;;;;;0.00;0.00;;;26.00;47.60;;;;;;5033934;28;20096;-72
2022/06/11 02:09:56;;;;;;;0.00;0.00;;;26.20;48.00;;;;;;5035358;28;20211;-72
2022/06/11 02:12:30;;;;;;;0.00;0.00;;;26.10;47.50;;;;;;5028385;28;20026;-73
2022/06/11 02:15:04;;;;;;;0.30;0.30;;;26.20;47.70;;;;;;5020958;28;20030;-72
2022/06/11 02:17:41;;;;;;;0.43;0.43;;;26.30;47.40;;;;;;5026781;28;20379;-72
2022/06/11 02:20:33;;;;;;;0.00;0.00;;;26.40;47.60;;;;;;5029908;28;20569;-73
2022/06/11 02:23:05;;;;;;;8.57;8.10;;;26.50;47.80;;;;;;5026436;28;20054;-73
2022/06/11 02:25:42;;;;;;;0.00;0.00;;;26.70;47.70;;;;;;5043453;28;20052;-72
2022/06/11 02:28:15;;;;;;;0.00;0.00;;;26.80;47.00;;;;;;5040133;28;20040;-73
2022/06/11 02:30:45;;;;;;;0.00;0.00;;;26.70;47.00;;;;;;5031334;28;20115;-72
2022/06/11 02:33:13;;;;;;;0.43;0.43;;;26.80;46.90;;;;;;5031572;28;20417;-73
2022/06/11 02:35:43;;;;;;;1.38;1.38;;;26.90;46.80;;;;;;5036848;28;20348;-72
2022/06/11 02:38:12;;;;;;;0.00;0.00;;;26.80;47.20;;;;;;5048887;28;20075;-73
2022/06/11 02:40:44;;;;;;;6.18;0.43;;;26.90;47.10;;;;;;5021045;28;20045;-73
2022/06/11 02:43:10;;;;;;;0.00;0.00;;;27.00;47.00;;;;;;5034610;28;20517;-72
2022/06/11 02:45:36;;;;;;;0.00;0.00;;;27.00;47.50;;;;;;5028756;28;20025;-72
2022/06/11 02:48:03;;;;;;;0.00;0.00;;;27.30;46.60;;;;;;5034134;28;20048;-73
2022/06/11 02:50:32;;;;;;;0.03;0.03;;;28.00;46.10;;;;;;5031766;28;20029;-73
2022/06/11 02:52:59;;;;;;;3.10;2.40;;;28.70;44.80;;;;;;5031189;28;20025;-72
2022/06/11 02:55:27;;;;;;;0.25;0.25;;;29.50;44.40;;;;;;5029454;28;20453;-72
2022/06/11 02:57:54;;;;;;;0.65;0.52;;;30.40;42.50;;;;;;5027024;28;20488;-72
2022/06/11 03:00:24;;;;;;;0.00;0.00;;;30.70;40.00;;;;;;5029071;28;20026;-73
2022/06/11 03:02:51;;;;;;;0.20;0.10;;;31.00;39.40;;;;;;5026817;28;20518;-73
2022/06/11 03:05:19;;;;;;;0.95;0.60;;;30.90;39.20;;;;;;5020795;28;20058;-73
2022/06/11 03:07:46;;;;;;;0.00;0.00;;;30.60;39.50;;;;;;5025573;28;20026;-73
2022/06/11 03:10:18;;;;;;;0.05;0.05;;;30.50;39.40;;;;;;5025102;28;20030;-73
2022/06/11 03:12:44;;;;;;;0.00;0.00;;;30.20;38.90;;;;;;5033150;28;20037;-73
2022/06/11 03:15:12;;;;;;;0.82;0.68;;;30.00;39.00;;;;;;5044529;28;20076;-72
2022/06/11 03:17:38;;;;;;;0.00;0.00;;;29.60;37.90;;;;;;5033057;28;20037;-73
2022/06/11 03:20:06;;;;;;;0.00;0.00;;;29.70;37.70;;;;;;5026000;28;20133;-73
2022/06/11 03:22:33;;;;;;;0.10;0.10;;;29.00;37.60;;;;;;5028071;28;20064;-73
2022/06/11 03:24:59;;;;;;;0.00;0.00;;;29.40;37.50;;;;;;5030661;28;20042;-73
2022/06/11 03:27:25;;;;;;;0.00;0.00;;;30.10;36.60;;;;;;5032318;28;20128;-73
2022/06/11 03:29:51;;;;;;;0.00;0.00;;;30.90;35.20;;;;;;5033293;28;20034;-74
2022/06/11 03:32:18;;;;;;;0.43;0.43;;;31.60;34.50;;;;;;5025380;28;20032;-74
2022/06/11 03:34:45;;;;;;;0.00;0.00;;;32.40;34.10;;;;;;5037216;28;20029;-74
2022/06/11 03:37:12;;;;;;;0.10;0.10;;;33.00;33.60;;;;;;5033767;28;20475;-74
2022/06/11 03:39:39;;;;;;;0.00;0.00;;;33.60;33.00;;;;;;5032862;28;20079;-74
2022/06/11 03:42:06;;;;;;;0.00;0.00;;;33.40;33.70;;;;;;5027103;28;20105;-74
2022/06/11 03:44:33;;;;;;;0.40;0.40;;;33.30;33.80;;;;;;5014609;28;20029;-73
2022/06/11 03:46:59;;;;;;;6.93;1.27;;;33.30;33.80;;;;;;5025260;28;20380;-74
2022/06/11 03:49:25;;;;;;;0.00;0.00;;;33.10;34.00;;;;;;5034103;28;20041;-74
2022/06/11 03:51:51;;;;;;;0.35;0.35;;;32.80;34.90;;;;;;5033210;28;20155;-74
2022/06/11 03:54:18;;;;;;;0.10;0.10;;;32.40;35.50;;;;;;5031678;28;20043;-74
2022/06/11 03:56:47;;;;;;;0.00;0.00;;;32.60;35.70;;;;;;5025942;28;20021;-73
2022/06/11 03:59:14;;;;;;;0.00;0.00;;;32.40;35.90;;;;;;5051984;28;20052;-74
2022/06/11 04:01:40;;;;;;;0.00;0.00;;;32.50;36.20;;;;;;5032161;28;20579;-74
2022/06/11 04:04:11;;;;;;;0.00;0.00;;;32.10;37.60;;;;;;5031330;28;20264;-73
2022/06/11 04:06:44;;;;;;;0.32;0.17;;;31.80;37.30;;;;;;5034098;28;20095;-73
2022/06/11 04:09:16;;;;;;;0.00;0.00;;;31.60;37.20;;;;;;5030946;28;20147;-74
2022/06/11 04:11:42;;;;;;;0.60;0.55;;;30.90;38.40;;;;;;5032776;28;20029;-73
2022/06/11 04:14:09;;;;;;;0.10;0.10;;;31.20;38.50;;;;;;5020179;28;20365;-74
2022/06/11 04:16:40;;;;;;;3.30;0.40;;;31.20;38.30;;;;;;5041640;28;20026;-73
2022/06/11 04:19:11;;;;;;;0.00;0.00;;;30.30;39.80;;;;;;5030388;28;20057;-74
2022/06/11 04:21:38;;;;;;;0.00;0.00;;;30.00;40.00;;;;;;5024906;28;20473;-73
2022/06/11 04:24:05;;;;;;;0.00;0.00;;;30.10;40.70;;;;;;5023815;28;20035;-73
2022/06/11 04:26:35;;;;;;;0.17;0.17;;;30.50;39.80;;;;;;5026624;28;20070;-74
2022/06/11 04:29:03;;;;;;;0.30;0.30;;;30.80;38.50;;;;;;5023961;28;20021;-74
2022/06/11 04:31:31;;;;;;;0.00;0.00;;;30.80;38.20;;;;;;5027710;28;20067;-73
2022/06/11 04:33:57;;;;;;;0.00;0.00;;;30.80;38.70;;;;;;5026490;28;20092;-73
2022/06/11 04:36:27;;;;;;;0.13;0.13;;;30.80;38.90;;;;;;5027929;28;20040;-73
2022/06/11 04:38:54;;;;;;;0.08;0.08;;;30.60;39.50;;;;;;5026912;28;20026;-73
2022/06/11 04:41:20;;;;;;;0.00;0.00;;;30.80;39.30;;;;;;5029387;28;20043;-73
2022/06/11 04:43:46;;;;;;;0.30;0.30;;;30.80;38.80;;;;;;5028169;28;20029;-73
2022/06/11 04:46:13;;;;;;;0.32;0.32;;;30.80;38.50;;;;;;5035222;28;20500;-73
2022/06/11 04:48:48;;;;;;;0.00;0.00;;;30.80;38.40;;;;;;5044444;28;20087;-73
2022/06/11 04:51:15;;;;;;;1.75;1.65;;;30.70;38.70;;;;;;5028102;28;20029;-72
2022/06/11 04:53:44;;;;;;;0.30;0.20;;;30.50;39.60;;;;;;5029264;28;20025;-72
2022/06/11 04:56:17;;;;;;;0.47;0.20;;;30.20;39.00;;;;;;5028573;28;20056;-73
2022/06/11 04:58:44;;;;;;;14.30;3.70;;;29.90;39.10;;;;;;5027186;28;20036;-73
2022/06/11 05:01:11;;;;;;;0.00;0.00;;;30.00;39.20;;;;;;5043045;28;20032;-73
2022/06/11 05:03:38;;;;;;;3.72;1.88;;;30.20;38.30;;;;;;5030708;28;20029;-76
2022/06/11 05:06:04;;;;;;;0.00;0.00;;;30.20;37.70;;;;;;5026985;28;20029;-72
2022/06/11 05:08:31;;;;;;;0.05;0.05;;;30.50;38.40;;;;;;5029900;28;20037;-74
2022/06/11 05:10:58;;;;;;;0.00;0.00;;;30.40;38.80;;;;;;5030197;28;20037;-73
2022/06/11 05:13:24;;;;;;;0.08;0.08;;;30.60;38.20;;;;;;5028255;28;20028;-74
2022/06/11 05:15:53;;;;;;;0.47;0.47;;;30.60;37.70;;;;;;5030060;28;20029;-72
2022/06/11 05:18:21;;;;;;;7.38;3.53;;;30.70;38.20;;;;;;5028840;28;20030;-74
2022/06/11 05:20:48;;;;;;;0.00;0.00;;;30.60;38.50;;;;;;5025793;28;20108;-73
2022/06/11 05:23:14;;;;;;;0.00;0.00;;;30.70;39.00;;;;;;5037279;28;20415;-73
2022/06/11 05:25:43;;;;;;;0.00;0.00;;;30.80;38.80;;;;;;5026683;28;20543;-73
2022/06/11 05:28:20;;;;;;;0.20;0.20;;;30.40;38.90;;;;;;5025093;28;20037;-73
2022/06/11 05:30:46;;;;;;;0.00;0.00;;;30.30;39.40;;;;;;5028860;28;20476;-73
2022/06/11 05:33:13;;;;;;;0.00;0.00;;;30.50;39.40;;;;;;5030993;28;20026;-73
2022/06/11 05:35:40;;;;;;;0.22;0.22;;;30.50;39.60;;;;;;5019783;28;20410;-73
2022/06/11 05:38:11;;;;;;;0.00;0.00;;;30.60;39.30;;;;;;5024290;28;20372;-73
2022/06/11 05:40:41;;;;;;;0.43;0.20;;;30.30;39.80;;;;;;5026060;28;20357;-73
2022/06/11 05:43:08;;;;;;;0.13;0.13;;;30.50;39.20;;;;;;5033504;28;20383;-73
2022/06/11 05:46:17;;;;;;;0.22;0.22;;;30.00;40.10;;;;;;5036237;28;20035;-73
2022/06/11 05:48:51;;;;;;;0.00;0.00;;;30.10;39.20;;;;;;5024698;28;20050;-73
2022/06/11 05:51:25;;;;;;;0.00;0.00;;;30.00;39.70;;;;;;5028379;28;20388;-73
2022/06/11 05:53:54;;;;;;;0.10;0.10;;;30.20;39.70;;;;;;5009565;28;20041;-73
2022/06/11 05:56:20;;;;;;;0.08;0.05;;;30.30;38.00;;;;;;5031035;28;20056;-73
2022/06/11 05:58:56;;;;;;;0.00;0.00;;;30.40;37.90;;;;;;5028061;28;20064;-73
2022/06/11 06:01:26;;;;;;;0.00;0.00;;;30.30;38.20;;;;;;5023813;28;20025;-73
2022/06/11 06:03:52;;;;;;;0.10;0.10;;;30.30;38.50;;;;;;5026569;28;20468;-73
2022/06/11 06:06:18;;;;;;;0.00;0.00;;;30.50;37.60;;;;;;5029507;28;20068;-74
2022/06/11 06:08:44;;;;;;;0.75;0.65;;;30.50;36.20;;;;;;5025520;28;20025;-73
2022/06/11 06:11:11;;;;;;;0.20;0.10;;;30.80;35.80;;;;;;5026013;28;20059;-73
2022/06/11 06:13:50;;;;;;;0.00;0.00;;;30.30;35.10;;;;;;5023425;28;20057;-73
2022/06/11 06:16:27;;;;;;;0.10;0.10;;;30.40;35.50;;;;;;5024628;28;20029;-74
2022/06/11 06:18:55;;;;;;;0.00;0.00;;;30.30;35.50;;;;;;5025121;28;20045;-74
2022/06/11 06:21:24;;;;;;;0.43;0.43;;;30.50;35.80;;;;;;5027437;28;20029;-73
2022/06/11 06:23:50;;;;;;;0.00;0.00;;;30.50;34.80;;;;;;5031091;28;20022;-74
2022/06/11 06:26:16;;;;;;;0.10;0.10;;;30.40;35.30;;;;;;5025255;28;20030;-73
2022/06/11 06:28:42;;;;;;;0.00;0.00;;;30.70;35.10;;;;;;5027573;28;20040;-74
2022/06/11 06:31:10;;;;;;;0.20;0.20;;;30.50;36.30;;;;;;5025839;28;20472;-74
2022/06/11 06:33:37;;;;;;;0.52;0.52;;;30.50;35.80;;;;;;5028092;28;20091;-73
2022/06/11 06:36:05;;;;;;;0.00;0.00;;;30.80;35.50;;;;;;5025367;28;20391;-74
2022/06/11 06:38:33;;;;;;;0.00;0.00;;;31.00;34.60;;;;;;5025674;28;20419;-74
2022/06/11 06:41:00;;;;;;;0.80;0.38;;;31.00;35.50;;;;;;5028561;28;20029;-74
2022/06/11 06:43:26;;;;;;;0.00;0.00;;;30.60;35.10;;;;;;5032171;28;20468;-74
2022/06/11 06:45:53;;;;;;;0.00;0.00;;;30.50;35.00;;;;;;5031110;28;20029;-74
2022/06/11 06:48:19;;;;;;;0.00;0.00;;;30.10;35.50;;;;;;5023790;28;20037;-73
2022/06/11 06:50:45;;;;;;;0.43;0.43;;;30.10;36.10;;;;;;5025624;28;20033;-74
2022/06/11 06:53:11;;;;;;;0.80;0.80;;;30.40;35.90;;;;;;5036064;28;20021;-74
2022/06/11 06:55:38;;;;;;;0.00;0.00;;;30.90;35.20;;;;;;5028511;28;20034;-74
2022/06/11 06:58:04;;;;;;;0.00;0.00;;;31.40;34.90;;;;;;5030434;28;20097;-73
2022/06/11 07:00:30;;;;;;;0.00;0.00;;;31.60;34.50;;;;;;5025963;28;20547;-74
2022/06/11 07:02:56;;;;;;;0.13;0.13;;;31.60;33.80;;;;;;5025718;28;20525;-74
2022/06/11 07:05:26;;;;;;;0.00;0.00;;;31.70;34.10;;;;;;5029038;28;20052;-74
2022/06/11 07:07:53;;;;;;;13.77;5.53;;;31.80;32.80;;;;;;5025144;28;20026;-74
2022/06/11 07:10:21;;;;;;;0.00;0.00;;;32.00;32.50;;;;;;5023522;28;20490;-74
2022/06/11 07:12:47;;;;;;;0.00;0.00;;;31.60;31.90;;;;;;5026509;28;20030;-74
2022/06/11 07:15:13;;;;;;;0.00;0.00;;;31.80;32.30;;;;;;5023629;28;20354;-74
2022/06/11 07:17:48;;;;;;;0.00;0.00;;;32.00;32.10;;;;;;5021006;28;20036;-73
2022/06/11 07:20:20;;;;;;;0.00;0.00;;;31.60;32.40;;;;;;5036463;28;20053;-74
2022/06/11 07:22:56;;;;;;;0.00;0.00;;;31.60;32.70;;;;;;5030860;28;20032;-73
2022/06/11 07:25:23;;;;;;;0.00;0.00;;;31.70;31.90;;;;;;5024328;28;20077;-73
2022/06/11 07:27:55;;;;;;;0.00;0.00;;;31.60;33.00;;;;;;5030814;28;20476;-74
2022/06/11 07:30:24;;;;;;;0.00;0.00;;;31.90;32.90;;;;;;5019264;28;20021;-74
2022/06/11 07:33:00;;;;;;;0.00;0.00;;;32.00;32.80;;;;;;5050150;28;20021;-73
2022/06/11 07:35:26;;;;;;;0.00;0.00;;;32.10;32.60;;;;;;5015721;28;20018;-73
2022/06/11 07:37:52;;;;;;;1.25;0.20;;;32.30;32.50;;;;;;5030482;28;20067;-73
2022/06/11 07:40:21;;;;;;;2.78;0.55;;;31.70;32.90;;;;;;5024473;28;20065;-74
2022/06/11 07:42:47;;;;;;;0.30;0.15;;;31.90;32.40;;;;;;5025211;28;20032;-73
2022/06/11 07:45:16;;;;;;;2.63;2.30;;;31.80;32.20;;;;;;5019930;28;20046;-73
2022/06/11 07:47:54;;;;;;;0.20;0.20;;;32.20;32.20;;;;;;5029902;28;20121;-73
2022/06/11 07:50:51;;;;;;;0.15;0.15;;;32.70;32.20;;;;;;5030109;28;20064;-74
2022/06/11 07:53:19;;;;;;;0.00;0.00;;;32.30;31.60;;;;;;5015967;28;20405;-73
2022/06/11 07:55:47;;;;;;;0.00;0.00;;;32.30;32.20;;;;;;5031341;28;20475;-73
2022/06/11 07:58:15;;;;;;;0.00;0.00;;;32.20;31.20;;;;;;5024846;28;20021;-74
2022/06/11 08:00:50;;;;;;;0.00;0.00;;;32.30;31.10;;;;;;5029798;28;20116;-74
2022/06/11 08:03:18;;;;;;;0.00;0.00;;;32.40;30.10;;;;;;5031507;28;20372;-74
2022/06/11 08:05:45;;;;;;;0.10;0.10;;;32.50;30.60;;;;;;5027685;28;20052;-74
2022/06/11 08:08:12;;;;;;;0.00;0.00;;;32.50;30.90;;;;;;5027202;28;20120;-74
2022/06/11 08:10:41;;;;;;;0.00;0.00;;;31.90;32.00;;;;;;5020661;28;20022;-74
2022/06/11 08:13:09;;;;;;;1.38;1.27;;;32.00;33.20;;;;;;5025091;28;20026;-74
2022/06/11 08:15:37;;;;;;;0.00;0.00;;;32.40;32.90;;;;;;5031554;28;20019;-74
2022/06/11 08:18:03;;;;;;;0.00;0.00;;;32.40;32.40;;;;;;5034932;28;20025;-73
2022/06/11 08:20:31;;;;;;;0.55;0.10;;;32.40;32.00;;;;;;5036259;28;20045;-73
2022/06/11 08:22:57;;;;;;;0.20;0.20;;;31.90;32.70;;;;;;5033320;28;20022;-73
2022/06/11 08:25:24;;;;;;;0.00;0.00;;;31.20;35.30;;;;;;5027521;28;20063;-74
2022/06/11 08:27:50;;;;;;;0.00;0.00;;;31.60;34.90;;;;;;5028722;28;20061;-73
2022/06/11 08:30:20;;;;;;;0.00;0.00;;;31.90;35.10;;;;;;5030255;28;20029;-73
2022/06/11 08:32:46;;;;;;;4.95;1.65;;;32.00;34.20;;;;;;5034528;28;20382;-74
2022/06/11 08:35:13;;;;;;;0.00;0.00;;;31.60;34.40;;;;;;5032151;28;20364;-73
2022/06/11 08:37:40;;;;;;;0.00;0.00;;;31.70;35.60;;;;;;5024424;28;20064;-73
2022/06/11 08:40:13;;;;;;;0.00;0.00;;;32.00;34.50;;;;;;5030126;28;20032;-74
2022/06/11 08:42:44;;;;;;;0.00;0.00;;;32.10;34.80;;;;;;5031726;28;20072;-74
2022/06/11 08:45:20;;;;;;;1.45;0.75;;;32.00;34.80;;;;;;5033421;28;20495;-74
2022/06/11 08:47:55;;;;;;;0.00;0.00;;;31.70;35.30;;;;;;5027673;28;20263;-74
2022/06/11 08:50:30;;;;;;;2.10;1.90;;;31.60;35.90;;;;;;5021487;28;20358;-73
2022/06/11 08:52:57;;;;;;;0.10;0.10;;;31.80;35.40;;;;;;5021442;28;20399;-74
2022/06/11 08:55:35;;;;;;;0.00;0.00;;;32.20;35.30;;;;;;5024053;28;20025;-73
2022/06/11 08:58:23;;;;;;;0.00;0.00;;;32.40;34.50;;;;;;5025444;28;20021;-73
2022/06/11 09:01:24;;;;;;;0.00;0.00;;;32.40;33.90;;;;;;5024720;28;20029;-73
2022/06/11 09:04:12;;;;;;;0.00;0.00;;;32.30;35.50;;;;;;5028899;28;20588;-73
2022/06/11 09:06:50;;;;;;;0.08;0.08;;;32.40;34.80;;;;;;5024147;28;20464;-74
2022/06/11 09:09:50;;;;;;;0.47;0.47;;;32.40;34.40;;;;;;5024621;28;20036;-73
2022/06/11 09:12:59;;;;;;;0.52;0.22;;;32.50;33.20;;;;;;5026238;28;20032;-74
2022/06/11 09:15:44;;;;;;;0.00;0.00;;;31.60;34.70;;;;;;5013852;28;20116;-73
2022/06/11 09:18:18;;;;;;;0.00;0.00;;;31.40;35.50;;;;;;5028385;28;20503;-73
2022/06/11 09:21:09;;;;;;;0.10;0.10;;;31.80;35.50;;;;;;5046187;28;20037;-73
2022/06/11 09:23:58;;;;;;;0.00;0.00;;;32.10;36.50;;;;;;5023168;28;20021;-74
2022/06/11 09:26:46;;;;;;;0.00;0.00;;;32.60;35.30;;;;;;5032035;28;20072;-74
2022/06/11 09:29:20;;;;;;;0.00;0.00;;;32.40;33.50;;;;;;5026535;28;20028;-73
2022/06/11 09:32:22;;;;;;;0.00;0.00;;;31.80;35.40;;;;;;5032840;28;20053;-73
2022/06/11 09:34:55;;;;;;;0.00;0.00;;;31.80;35.20;;;;;;5026534;28;20026;-74
2022/06/11 09:37:28;;;;;;;0.00;0.00;;;32.40;34.50;;;;;;5026495;28;20072;-74
2022/06/11 09:40:06;;;;;;;0.00;0.00;;;32.80;34.30;;;;;;5042777;28;20057;-74
2022/06/11 09:42:59;;;;;;;0.00;0.00;;;32.80;34.20;;;;;;5034880;28;20029;-73
2022/06/11 09:46:05;;;;;;;0.00;0.00;;;32.20;35.90;;;;;;5025170;28;20038;-74
2022/06/11 09:49:10;;;;;;;0.20;0.10;;;32.70;35.30;;;;;;5025132;28;20379;-74
2022/06/11 09:51:49;;;;;;;1.70;1.60;;;32.10;35.30;;;;;;5016965;28;20041;-74
2022/06/11 09:54:30;;;;;;;0.00;0.00;;;32.20;35.40;;;;;;5031104;28;20025;-73
2022/06/11 09:56:59;;;;;;;0.00;0.00;;;32.60;34.30;;;;;;5042848;28;20049;-74
2022/06/11 09:59:32;;;;;;;0.00;0.00;;;32.90;33.40;;;;;;5029656;28;20025;-74
2022/06/11 10:02:10;;;;;;;0.00;0.00;;;33.00;33.10;;;;;;5033833;28;20108;-73
2022/06/11 10:04:44;;;;;;;0.00;0.00;;;32.90;33.30;;;;;;5026795;28;20036;-73
2022/06/11 10:07:35;;;;;;;0.00;0.00;;;31.90;35.40;;;;;;5026904;28;20057;-72
2022/06/11 10:10:08;;;;;;;0.00;0.00;;;32.40;34.90;;;;;;5030722;28;20442;-73
2022/06/11 10:12:42;;;;;;;0.00;0.00;;;32.60;34.20;;;;;;5032441;28;20021;-74
2022/06/11 10:15:36;;;;;;;0.00;0.00;;;32.60;34.20;;;;;;5023452;28;20550;-74
2022/06/11 10:18:11;;;;;;;0.00;0.00;;;32.70;34.00;;;;;;5029415;28;20036;-74
2022/06/11 10:20:46;;;;;;;0.08;0.08;;;32.60;34.60;;;;;;5014760;28;20538;-75
2022/06/11 10:23:25;;;;;;;0.38;0.32;;;32.80;34.40;;;;;;5014253;28;20089;-72
2022/06/11 10:26:00;;;;;;;0.00;0.00;;;32.60;33.80;;;;;;5018631;28;20033;-74
2022/06/11 10:28:49;;;;;;;0.05;0.05;;;32.70;36.00;;;;;;5015891;28;20060;-75
2022/06/11 10:31:50;;;;;;;0.00;0.00;;;32.60;35.10;;;;;;4979691;28;20048;-75
2022/06/11 10:34:24;;;;;;;0.10;0.10;;;32.40;35.60;;;;;;5003071;28;20050;-74
2022/06/11 10:37:08;;;;;;;0.13;0.13;;;32.30;34.40;;;;;;5008058;28;20025;-74
2022/06/11 10:39:40;;;;;;;0.28;0.28;;;32.10;35.40;;;;;;5008405;28;20036;-74
2022/06/11 10:42:18;;;;;;;0.00;0.00;;;31.90;34.60;;;;;;5014274;28;20045;-75
2022/06/11 10:44:52;;;;;;;0.17;0.17;;;31.50;35.10;;;;;;5011091;28;20061;-75
2022/06/11 10:47:26;;;;;;;0.00;0.00;;;31.30;36.30;;;;;;5007715;28;20392;-75
2022/06/11 10:50:14;;;;;;;0.25;0.25;;;31.20;35.60;;;;;;5006252;28;20038;-75
2022/06/11 10:52:48;;;;;;;0.00;0.00;;;30.90;35.30;;;;;;5007393;28;20092;-74
2022/06/11 10:55:27;;;;;;;0.00;0.00;;;30.90;35.80;;;;;;5005547;28;20460;-74
2022/06/11 10:57:55;;;;;;;0.00;0.00;;;30.50;35.70;;;;;;5005483;28;20036;-74
2022/06/11 11:00:25;;;;;;;0.00;0.00;;;30.50;36.30;;;;;;5017349;28;20030;-75
2022/06/11 11:02:53;;;;;;;0.00;0.00;;;29.80;37.50;;;;;;5015520;28;20065;-75
2022/06/11 11:05:20;;;;;;;0.00;0.00;;;29.80;37.70;;;;;;5002605;28;20030;-74
2022/06/11 11:07:59;;;;;;;0.10;0.10;;;29.30;38.80;;;;;;5023179;28;20032;-74
2022/06/11 11:10:47;;;;;;;0.00;0.00;;;29.00;40.00;;;;;;5016229;28;20036;-75
2022/06/11 11:13:16;;;;;;;0.00;0.00;;;29.10;40.90;;;;;;5015955;28;20037;-73
2022/06/11 11:15:55;;;;;;;0.00;0.00;;;29.20;40.70;;;;;;5016919;28;20080;-74
2022/06/11 11:18:25;;;;;;;0.00;0.00;;;29.00;41.20;;;;;;5021370;28;20097;-74
2022/06/11 11:20:55;;;;;;;0.00;0.00;;;28.90;41.90;;;;;;5031754;28;20071;-74
2022/06/11 11:23:30;;;;;;;0.00;0.00;;;29.00;42.10;;;;;;5034828;28;20048;-76
2022/06/11 11:26:19;;;;;;;0.00;0.00;;;28.90;42.00;;;;;;5036922;28;20080;-73
2022/06/11 11:29:16;;;;;;;0.00;0.00;;;28.80;42.50;;;;;;5035770;28;20120;-75
2022/06/11 11:32:06;;;;;;;0.00;0.00;;;28.90;42.40;;;;;;5032646;28;20624;-73
2022/06/11 11:34:52;;;;;;;0.10;0.10;;;28.80;41.80;;;;;;5040576;28;20101;-74
2022/06/11 11:37:32;;;;;;;0.52;0.52;;;28.80;40.90;;;;;;5044645;28;20025;-74
2022/06/11 11:40:02;;;;;;;0.00;0.00;;;29.00;40.00;;;;;;5032646;28;20312;-75
2022/06/11 11:42:46;;;;;;;0.05;0.05;;;29.00;39.90;;;;;;5031319;28;20025;-74
2022/06/11 11:45:23;;;;;;;0.15;0.15;;;29.30;38.60;;;;;;5030066;28;20033;-73
2022/06/11 11:47:53;;;;;;;0.40;0.40;;;29.20;39.50;;;;;;5028905;28;20372;-74
2022/06/11 11:50:31;;;;;;;0.00;0.00;;;29.20;40.30;;;;;;5035530;28;20022;-74
2022/06/11 11:53:21;;;;;;;0.00;0.00;;;29.10;40.60;;;;;;5036012;28;20060;-74
2022/06/11 11:55:56;;;;;;;0.60;0.60;;;28.90;40.30;;;;;;5038549;28;20028;-74
2022/06/11 11:58:36;;;;;;;0.08;0.08;;;28.80;40.70;;;;;;5033887;28;20022;-74
2022/06/11 12:01:09;;;;;;;0.00;0.00;;;29.00;40.20;;;;;;5028098;28;20025;-74
2022/06/11 12:03:40;;;;;;;0.00;0.00;;;29.20;39.60;;;;;;5026673;28;20029;-75
2022/06/11 12:06:13;;;;;;;0.00;0.00;;;29.30;39.50;;;;;;5028545;28;20026;-75
2022/06/11 12:08:51;;;;;;;0.00;0.00;;;29.50;39.20;;;;;;5029926;28;20033;-74
2022/06/11 12:11:37;;;;;;;0.40;0.40;;;30.00;38.60;;;;;;5023498;28;20025;-74
2022/06/11 12:14:15;;;;;;;0.00;0.00;;;30.30;37.70;;;;;;5035034;28;20679;-74
2022/06/11 12:16:49;;;;;;;2.75;2.50;;;30.70;37.90;;;;;;5031208;28;20021;-74
2022/06/11 12:19:26;;;;;;;0.00;0.00;;;30.70;39.30;;;;;;5037564;28;20562;-76
2022/06/11 12:22:17;;;;;;;0.00;0.00;;;30.50;39.60;;;;;;5036411;28;20065;-73
2022/06/11 12:24:47;;;;;;;0.00;0.00;;;30.50;38.20;;;;;;5040479;28;20080;-74
2022/06/11 12:27:36;;;;;;;0.38;0.20;;;30.50;36.60;;;;;;5027883;28;20056;-74
2022/06/11 12:30:11;;;;;;;0.00;0.00;;;30.60;38.20;;;;;;5033789;28;20029;-73
2022/06/11 12:32:38;;;;;;;0.00;0.00;;;30.60;37.00;;;;;;5032613;28;20025;-73
2022/06/11 12:35:14;;;;;;;0.00;0.00;;;30.50;36.90;;;;;;5032262;28;20030;-73
2022/06/11 12:37:45;;;;;;;0.10;0.10;;;30.40;37.50;;;;;;5030300;28;20329;-73
2022/06/11 12:40:23;;;;;;;0.00;0.00;;;30.20;37.50;;;;;;5031547;28;20029;-74
2022/06/11 12:43:10;;;;;;;0.05;0.05;;;30.30;37.70;;;;;;5032318;28;20029;-74
2022/06/11 12:45:42;;;;;;;0.00;0.00;;;30.20;37.70;;;;;;5020333;28;20030;-74
2022/06/11 12:48:18;;;;;;;0.00;0.00;;;30.10;37.60;;;;;;5023634;28;20111;-74
2022/06/11 12:51:01;;;;;;;0.00;0.00;;;30.00;38.70;;;;;;5037334;28;20059;-74
2022/06/11 12:54:01;;;;;;;10.23;9.23;;;30.10;38.20;;;;;;5046299;28;20375;-73
2022/06/11 12:56:59;;;;;;;0.00;0.00;;;29.80;37.70;;;;;;5012618;28;20087;-73
2022/06/11 12:59:37;;;;;;;0.00;0.00;;;29.80;37.60;;;;;;5015977;28;20022;-74
2022/06/11 13:02:35;;;;;;;0.00;0.00;;;29.80;37.80;;;;;;5034218;28;20352;-74
2022/06/11 13:05:44;;;;;;;0.00;0.00;;;29.90;37.80;;;;;;5042946;28;20401;-74
2022/06/11 13:08:20;;;;;;;0.00;0.00;;;30.00;38.40;;;;;;5042894;28;20037;-73
2022/06/11 13:10:54;;;;;;;0.00;0.00;;;29.80;39.20;;;;;;5039728;28;20029;-73
2022/06/11 13:13:38;;;;;;;0.00;0.00;;;29.80;40.00;;;;;;5037078;28;20029;-73
2022/06/11 13:16:34;;;;;;;0.00;0.00;;;29.80;40.30;;;;;;5031402;28;20029;-74
2022/06/11 13:19:14;;;;;;;0.00;0.00;;;29.60;41.30;;;;;;4990741;28;20060;-74